Private Wetterstation Sandau
Wetterdaten: Woche 17.09.12 - 23.09.12 (KW38)
Datum Zeit Temp. A. Feuchte A. Luftdruck Regen Wind Richtung Taupunkt Windchill
17.09.2012 00:00 13,0 C 75 % 1012,8 hPa 0,0 l/m 3,0 km/h (1 Bft) S-SO 8,7 C 13,0 C
17.09.2012 01:00 12,6 C 77 % 1012,2 hPa 0,0 l/m 3,7 km/h (1 Bft) S-SO 8,6 C 12,6 C
17.09.2012 02:00 12,3 C 78 % 1011,9 hPa 0,0 l/m 3,2 km/h (1 Bft) S-SO 8,7 C 12,3 C
17.09.2012 03:00 12,2 C 79 % 1011,6 hPa 0,0 l/m 4,0 km/h (1 Bft) S-SO 8,7 C 12,2 C
17.09.2012 04:00 11,9 C 80 % 1011,6 hPa 0,0 l/m 4,4 km/h (1 Bft) S-SO 8,6 C 11,9 C
17.09.2012 05:00 11,6 C 82 % 1011,5 hPa 0,0 l/m 3,8 km/h (1 Bft) S-SW 8,5 C 11,6 C
17.09.2012 06:00 11,3 C 83 % 1011,5 hPa 0,0 l/m 1,7 km/h (1 Bft) S-SO 8,4 C 11,3 C
17.09.2012 07:00 11,0 C 84 % 1011,7 hPa 0,0 l/m 3,5 km/h (1 Bft) S-SO 8,4 C 11,0 C
17.09.2012 08:00 12,1 C 84 % 1012,0 hPa 0,0 l/m 2,3 km/h (1 Bft) S-SO 9,5 C 12,1 C
17.09.2012 09:00 14,6 C 80 % 1012,3 hPa 0,0 l/m 7,6 km/h (2 Bft) SW 11,2 C 14,6 C
17.09.2012 10:00 17,7 C 72 % 1012,9 hPa 0,0 l/m 9,0 km/h (2 Bft) W 12,5 C 17,7 C
17.09.2012 11:00 19,3 C 66 % 1013,2 hPa 0,0 l/m 10,5 km/h (2 Bft) W 12,8 C 19,3 C
17.09.2012 12:00 20,1 C 62 % 1013,5 hPa 0,0 l/m 13,5 km/h (3 Bft) W-SW 12,7 C 20,1 C
17.09.2012 13:00 21,3 C 58 % 1013,5 hPa 0,0 l/m 9,6 km/h (2 Bft) W-SW 12,8 C 21,3 C
17.09.2012 14:00 21,8 C 56 % 1013,7 hPa 0,0 l/m 7,5 km/h (2 Bft) W 12,7 C 21,8 C
17.09.2012 15:00 20,9 C 59 % 1013,8 hPa 0,0 l/m 7,6 km/h (2 Bft) W-NW 12,7 C 20,9 C
17.09.2012 16:00 20,6 C 61 % 1013,8 hPa 0,0 l/m 7,1 km/h (2 Bft) W 12,8 C 20,6 C
17.09.2012 17:00 21,1 C 58 % 1013,8 hPa 0,0 l/m 5,0 km/h (1 Bft) W-NW 12,5 C 21,1 C
17.09.2012 18:00 20,0 C 62 % 1013,9 hPa 0,0 l/m 3,5 km/h (1 Bft) W-SW 12,5 C 20,0 C
17.09.2012 19:00 17,9 C 68 % 1014,2 hPa 0,0 l/m 2,9 km/h (1 Bft) W-SW 11,9 C 17,9 C
17.09.2012 20:00 16,5 C 73 % 1014,5 hPa 0,0 l/m 1,3 km/h (1 Bft) W-SW 11,6 C 16,5 C
17.09.2012 21:00 15,3 C 76 % 1014,7 hPa 0,0 l/m 1,0 km/h (0 Bft) S-SO 11,1 C 15,3 C
17.09.2012 22:00 14,1 C 80 % 1014,6 hPa 0,0 l/m 0,7 km/h (0 Bft) S-SO 10,7 C 14,1 C
17.09.2012 23:00 13,3 C 82 % 1014,3 hPa 0,0 l/m 0,6 km/h (0 Bft) S 10,3 C 13,3 C
18.09.2012 00:00 12,4 C 84 % 1014,0 hPa 0,0 l/m 0,2 km/h (0 Bft) S-SO 9,7 C 12,4 C
18.09.2012 01:00 12,1 C 86 % 1013,4 hPa 0,0 l/m 1,5 km/h (1 Bft) SO 9,8 C 12,1 C
18.09.2012 02:00 11,6 C 87 % 1013,0 hPa 0,0 l/m 0,9 km/h (0 Bft) SO 9,5 C 11,6 C
18.09.2012 03:00 11,4 C 88 % 1012,5 hPa 0,0 l/m 0,9 km/h (0 Bft) SO 9,5 C 11,4 C
18.09.2012 04:00 11,6 C 88 % 1012,1 hPa 0,0 l/m 0,3 km/h (0 Bft) SO 9,7 C 11,6 C
18.09.2012 05:00 11,3 C 88 % 1011,4 hPa 0,0 l/m 1,5 km/h (1 Bft) SO 9,3 C 11,3 C
18.09.2012 06:00 11,9 C 89 % 1011,0 hPa 0,0 l/m 4,3 km/h (1 Bft) S-SO 10,1 C 11,9 C
18.09.2012 07:00 12,8 C 88 % 1010,8 hPa 0,0 l/m 3,0 km/h (1 Bft) S-SW 10,9 C 12,8 C
18.09.2012 08:00 14,1 C 86 % 1010,9 hPa 0,0 l/m 4,6 km/h (1 Bft) W-SW 11,8 C 14,1 C
18.09.2012 09:00 16,4 C 79 % 1010,9 hPa 0,0 l/m 7,1 km/h (2 Bft) W-SW 12,8 C 16,4 C
18.09.2012 10:00 17,5 C 76 % 1010,9 hPa 0,0 l/m 4,6 km/h (1 Bft) W-SW 13,1 C 17,5 C
18.09.2012 11:00 19,2 C 70 % 1010,5 hPa 0,0 l/m 6,7 km/h (2 Bft) W-SW 13,5 C 19,2 C
18.09.2012 12:00 20,5 C 64 % 1010,1 hPa 0,0 l/m 12,5 km/h (3 Bft) W-SW 13,5 C 20,5 C
18.09.2012 13:00 21,7 C 59 % 1009,6 hPa 0,0 l/m 11,2 km/h (2 Bft) SW 13,2 C 21,7 C
18.09.2012 14:00 21,9 C 56 % 1009,3 hPa 0,0 l/m 10,8 km/h (2 Bft) W 12,7 C 21,9 C
18.09.2012 15:00 22,5 C 52 % 1009,1 hPa 0,0 l/m 10,3 km/h (2 Bft) W 12,1 C 22,5 C
18.09.2012 16:00 21,7 C 50 % 1009,1 hPa 0,0 l/m 9,4 km/h (2 Bft) W-SW 10,9 C 21,7 C
18.09.2012 17:00 20,7 C 52 % 1009,0 hPa 0,0 l/m 7,8 km/h (2 Bft) W-SW 10,5 C 20,7 C
18.09.2012 18:00 19,8 C 55 % 1008,9 hPa 0,0 l/m 7,1 km/h (2 Bft) W-SW 10,4 C 19,8 C
18.09.2012 19:00 18,1 C 61 % 1009,6 hPa 0,0 l/m 8,8 km/h (2 Bft) W-NW 10,5 C 18,1 C
18.09.2012 20:00 15,9 C 71 % 1010,5 hPa 0,0 l/m 10,7 km/h (2 Bft) W-NW 10,5 C 15,9 C
18.09.2012 21:00 14,7 C 78 % 1010,7 hPa 0,5 l/m 6,8 km/h (2 Bft) W-NW 10,8 C 14,7 C
18.09.2012 22:00 14,1 C 83 % 1010,9 hPa 0,0 l/m 3,9 km/h (1 Bft) W-NW 11,2 C 14,1 C
18.09.2012 23:00 13,7 C 84 % 1011,1 hPa 0,0 l/m 4,3 km/h (1 Bft) W-NW 11,0 C 13,7 C
19.09.2012 00:00 13,1 C 80 % 1011,4 hPa 0,0 l/m 6,3 km/h (2 Bft) W-NW 9,6 C 13,1 C
19.09.2012 01:00 12,5 C 80 % 1011,6 hPa 0,0 l/m 6,2 km/h (2 Bft) W-NW 9,1 C 12,5 C
19.09.2012 02:00 12,1 C 80 % 1012,1 hPa 0,0 l/m 6,3 km/h (2 Bft) W-SW 8,7 C 12,1 C
19.09.2012 03:00 11,6 C 81 % 1012,2 hPa 0,0 l/m 5,4 km/h (1 Bft) W-NW 8,4 C 11,6 C
19.09.2012 04:00 11,0 C 82 % 1012,3 hPa 0,0 l/m 5,5 km/h (1 Bft) W-NW 8,0 C 11,0 C
19.09.2012 05:00 10,0 C 83 % 1012,5 hPa 0,0 l/m 7,0 km/h (2 Bft) W-NW 7,3 C 9,7 C
19.09.2012 06:00 9,2 C 85 % 1013,1 hPa 0,0 l/m 6,2 km/h (2 Bft) W 6,7 C 8,4 C
19.09.2012 07:00 8,8 C 86 % 1013,6 hPa 0,0 l/m 8,9 km/h (2 Bft) W 6,5 C 7,6 C
19.09.2012 08:00 9,7 C 83 % 1014,0 hPa 0,0 l/m 7,5 km/h (2 Bft) W 7,0 C 9,0 C
19.09.2012 09:00 11,3 C 77 % 1014,5 hPa 0,0 l/m 9,4 km/h (2 Bft) W-NW 7,5 C 11,3 C
19.09.2012 10:00 12,9 C 70 % 1014,9 hPa 0,0 l/m 12,2 km/h (2 Bft) NW 7,5 C 12,9 C
19.09.2012 11:00 14,4 C 62 % 1015,3 hPa 0,0 l/m 13,5 km/h (3 Bft) W-SW 7,3 C 14,4 C
19.09.2012 12:00 15,1 C 55 % 1015,7 hPa 0,0 l/m 12,2 km/h (2 Bft) W-NW 6,1 C 15,1 C
19.09.2012 13:00 15,6 C 50 % 1016,1 hPa 0,0 l/m 12,9 km/h (3 Bft) W-SW 5,2 C 15,6 C
19.09.2012 14:00 15,4 C 53 % 1016,3 hPa 0,0 l/m 9,7 km/h (2 Bft) W-SW 5,9 C 15,4 C
19.09.2012 15:00 16,0 C 48 % 1016,4 hPa 0,0 l/m 12,2 km/h (2 Bft) NW 5,0 C 16,0 C
19.09.2012 16:00 15,8 C 48 % 1016,6 hPa 0,0 l/m 10,1 km/h (2 Bft) NW 4,8 C 15,8 C
19.09.2012 17:00 15,9 C 46 % 1016,9 hPa 0,0 l/m 12,2 km/h (2 Bft) W-NW 4,4 C 15,9 C
19.09.2012 18:00 14,5 C 50 % 1017,3 hPa 0,0 l/m 9,7 km/h (2 Bft) W-NW 4,2 C 14,5 C
19.09.2012 19:00 13,0 C 56 % 1017,9 hPa 0,0 l/m 4,1 km/h (1 Bft) W-NW 4,4 C 13,0 C
19.09.2012 20:00 11,0 C 63 % 1018,7 hPa 0,0 l/m 0,6 km/h (0 Bft) N 4,3 C 11,0 C
19.09.2012 21:00 9,4 C 70 % 1018,9 hPa 0,0 l/m 0,7 km/h (0 Bft) S 4,1 C 9,4 C
19.09.2012 22:00 8,2 C 75 % 1019,4 hPa 0,0 l/m 0,1 km/h (0 Bft) N 4,0 C 8,2 C
19.09.2012 23:00 7,8 C 78 % 1019,8 hPa 0,0 l/m 3,2 km/h (1 Bft) W-SW 4,1 C 7,4 C
20.09.2012 00:00 8,2 C 77 % 1020,2 hPa 0,0 l/m 3,9 km/h (1 Bft) W 4,3 C 7,8 C
20.09.2012 01:00 8,2 C 78 % 1020,3 hPa 0,0 l/m 6,3 km/h (2 Bft) W-SW 4,6 C 7,4 C
20.09.2012 02:00 7,8 C 80 % 1020,5 hPa 0,0 l/m 6,9 km/h (2 Bft) W-SW 4,6 C 6,7 C
20.09.2012 03:00 7,3 C 81 % 1020,6 hPa 0,0 l/m 5,8 km/h (2 Bft) W-SW 4,3 C 6,6 C
20.09.2012 04:00 6,7 C 83 % 1020,9 hPa 0,0 l/m 4,2 km/h (1 Bft) W-SW 4,0 C 6,4 C
20.09.2012 05:00 6,3 C 85 % 1021,1 hPa 0,0 l/m 5,8 km/h (2 Bft) W-SW 3,9 C 5,3 C
20.09.2012 06:00 6,0 C 87 % 1021,5 hPa 0,0 l/m 8,2 km/h (2 Bft) W-SW 4,0 C 4,4 C
20.09.2012 07:00 6,3 C 87 % 1021,9 hPa 0,0 l/m 5,8 km/h (2 Bft) W-SW 4,3 C 5,4 C
20.09.2012 08:00 7,6 C 86 % 1022,3 hPa 0,0 l/m 9,7 km/h (2 Bft) W 5,4 C 6,0 C
20.09.2012 09:00 9,6 C 81 % 1022,7 hPa 0,0 l/m 10,9 km/h (2 Bft) W 6,4 C 8,6 C
20.09.2012 10:00 11,6 C 74 % 1022,9 hPa 0,0 l/m 7,3 km/h (2 Bft) W 7,1 C 11,6 C
20.09.2012 11:00 13,4 C 67 % 1023,0 hPa 0,0 l/m 10,5 km/h (2 Bft) W-SW 7,4 C 13,4 C
20.09.2012 12:00 15,1 C 59 % 1022,9 hPa 0,0 l/m 9,9 km/h (2 Bft) SW 7,0 C 15,1 C
20.09.2012 13:00 15,7 C 53 % 1022,6 hPa 0,0 l/m 13,4 km/h (3 Bft) W-SW 6,0 C 15,7 C
20.09.2012 14:00 16,7 C 47 % 1022,3 hPa 0,0 l/m 11,9 km/h (2 Bft) W 5,2 C 16,7 C
20.09.2012 15:00 17,1 C 43 % 1022,0 hPa 0,0 l/m 12,6 km/h (3 Bft) W-SW 4,3 C 17,1 C
20.09.2012 16:00 16,4 C 44 % 1021,9 hPa 0,0 l/m 10,1 km/h (2 Bft) W-SW 4,2 C 16,4 C
20.09.2012 17:00 15,5 C 50 % 1021,9 hPa 0,0 l/m 8,5 km/h (2 Bft) W-SW 5,0 C 15,5 C
20.09.2012 18:00 14,6 C 54 % 1022,0 hPa 0,0 l/m 8,2 km/h (2 Bft) W-SW 5,3 C 14,6 C
20.09.2012 19:00 13,6 C 56 % 1022,2 hPa 0,0 l/m 2,7 km/h (1 Bft) W-SW 5,1 C 13,6 C
20.09.2012 20:00 12,5 C 60 % 1022,5 hPa 0,0 l/m 1,3 km/h (1 Bft) SW 4,9 C 12,5 C
20.09.2012 21:00 10,9 C 65 % 1022,5 hPa 0,0 l/m 1,5 km/h (1 Bft) S-SW 4,6 C 10,9 C
20.09.2012 22:00 9,7 C 69 % 1022,5 hPa 0,0 l/m 1,8 km/h (1 Bft) S 4,3 C 9,7 C
20.09.2012 23:00 9,3 C 72 % 1022,5 hPa 0,0 l/m 2,8 km/h (1 Bft) S-SO 4,5 C 9,2 C
21.09.2012 00:00 9,0 C 74 % 1022,5 hPa 0,0 l/m 2,2 km/h (1 Bft) S-SO 4,6 C 9,0 C
21.09.2012 01:00 8,4 C 76 % 1022,2 hPa 0,0 l/m 2,9 km/h (1 Bft) S-SO 4,4 C 8,3 C
21.09.2012 02:00 7,9 C 78 % 1022,0 hPa 0,0 l/m 2,7 km/h (1 Bft) S-SO 4,3 C 7,8 C
21.09.2012 03:00 7,6 C 79 % 1021,7 hPa 0,0 l/m 3,4 km/h (1 Bft) S-SO 4,2 C 7,5 C
21.09.2012 04:00 7,3 C 79 % 1021,5 hPa 0,0 l/m 2,1 km/h (1 Bft) S-SO 3,9 C 7,3 C
21.09.2012 05:00 7,1 C 80 % 1021,2 hPa 0,0 l/m 2,4 km/h (1 Bft) S-SO 3,8 C 7,0 C
21.09.2012 06:00 6,6 C 80 % 1021,0 hPa 0,0 l/m 3,0 km/h (1 Bft) S-SO 3,5 C 6,4 C
21.09.2012 07:00 7,0 C 82 % 1020,8 hPa 0,0 l/m 4,0 km/h (1 Bft) S 4,0 C 6,6 C
21.09.2012 08:00 8,2 C 80 % 1020,8 hPa 0,0 l/m 4,2 km/h (1 Bft) S-SO 4,9 C 7,9 C
21.09.2012 09:00 10,0 C 75 % 1020,6 hPa 0,0 l/m 4,8 km/h (1 Bft) S-SO 5,9 C 9,8 C
21.09.2012 10:00 12,3 C 69 % 1020,4 hPa 0,0 l/m 8,8 km/h (2 Bft) S-SO 6,8 C 12,3 C
21.09.2012 11:00 14,8 C 61 % 1020,0 hPa 0,0 l/m 8,6 km/h (2 Bft) S-SO 7,3 C 14,8 C
21.09.2012 12:00 16,7 C 51 % 1019,2 hPa 0,0 l/m 8,9 km/h (2 Bft) S-SW 6,6 C 16,7 C
21.09.2012 13:00 17,5 C 48 % 1018,4 hPa 0,0 l/m 11,0 km/h (2 Bft) S-SW 6,3 C 17,5 C
21.09.2012 14:00 18,1 C 45 % 1017,4 hPa 0,0 l/m 9,4 km/h (2 Bft) SO 5,8 C 18,1 C
21.09.2012 15:00 18,2 C 44 % 1016,8 hPa 0,0 l/m 12,2 km/h (2 Bft) S-SW 5,8 C 18,2 C
21.09.2012 16:00 17,8 C 46 % 1016,1 hPa 0,0 l/m 6,6 km/h (2 Bft) S-SW 5,9 C 17,8 C
21.09.2012 17:00 17,1 C 46 % 1015,2 hPa 0,0 l/m 6,3 km/h (2 Bft) S 5,4 C 17,1 C
21.09.2012 18:00 16,3 C 48 % 1014,6 hPa 0,0 l/m 4,7 km/h (1 Bft) S-SO 5,3 C 16,3 C
21.09.2012 19:00 15,3 C 51 % 1014,3 hPa 0,0 l/m 3,7 km/h (1 Bft) S-SO 5,1 C 15,3 C
21.09.2012 20:00 14,7 C 51 % 1013,9 hPa 0,0 l/m 3,1 km/h (1 Bft) SO 4,7 C 14,7 C
21.09.2012 21:00 13,9 C 53 % 1013,0 hPa 0,0 l/m 4,6 km/h (1 Bft) SO 4,5 C 13,9 C
21.09.2012 22:00 13,4 C 55 % 1012,3 hPa 0,0 l/m 5,0 km/h (1 Bft) SO 4,5 C 13,4 C
21.09.2012 23:00 13,1 C 57 % 1011,5 hPa 0,0 l/m 4,4 km/h (1 Bft) SO 4,8 C 13,1 C
22.09.2012 00:00 12,6 C 60 % 1010,7 hPa 0,0 l/m 2,6 km/h (1 Bft) O-SO 5,1 C 12,6 C
22.09.2012 01:00 12,1 C 63 % 1009,9 hPa 0,0 l/m 1,6 km/h (1 Bft) SO 5,3 C 12,1 C
22.09.2012 02:00 11,9 C 65 % 1009,2 hPa 0,0 l/m 1,3 km/h (1 Bft) SO 5,5 C 11,9 C
22.09.2012 03:00 11,5 C 67 % 1008,6 hPa 0,0 l/m 0,8 km/h (0 Bft) S-SO 5,5 C 11,5 C
22.09.2012 04:00 10,9 C 70 % 1008,1 hPa 0,0 l/m 1,4 km/h (1 Bft) S-SW 5,6 C 10,9 C
22.09.2012 05:00 9,8 C 73 % 1007,7 hPa 0,0 l/m 2,2 km/h (1 Bft) S-SW 5,2 C 9,8 C
22.09.2012 06:00 8,5 C 77 % 1007,5 hPa 0,0 l/m 0,7 km/h (0 Bft) W 4,7 C 8,5 C
22.09.2012 07:00 8,6 C 79 % 1007,6 hPa 0,0 l/m 2,0 km/h (1 Bft) W-SW 5,2 C 8,6 C
22.09.2012 08:00 10,3 C 76 % 1007,7 hPa 0,0 l/m 7,9 km/h (2 Bft) W-SW 6,3 C 10,3 C
22.09.2012 09:00 12,0 C 73 % 1008,0 hPa 0,0 l/m 13,3 km/h (3 Bft) W-SW 7,2 C 12,0 C
22.09.2012 10:00 13,1 C 68 % 1008,2 hPa 0,0 l/m 15,2 km/h (3 Bft) W 7,2 C 13,1 C
22.09.2012 11:00 11,4 C 76 % 1008,8 hPa 0,0 l/m 15,7 km/h (3 Bft) W 7,3 C 11,4 C
22.09.2012 12:00 12,0 C 73 % 1009,8 hPa 0,0 l/m 16,1 km/h (3 Bft) NW 7,3 C 12,0 C
22.09.2012 13:00 13,7 C 63 % 1010,3 hPa 0,0 l/m 18,6 km/h (3 Bft) NW 6,8 C 13,7 C
22.09.2012 14:00 14,1 C 64 % 1010,9 hPa 0,0 l/m 15,4 km/h (3 Bft) NW 7,3 C 14,1 C
22.09.2012 15:00 14,0 C 60 % 1012,0 hPa 0,0 l/m 15,4 km/h (3 Bft) N-NW 6,3 C 14,0 C
22.09.2012 16:00 14,0 C 57 % 1013,1 hPa 0,0 l/m 16,1 km/h (3 Bft) W-NW 5,7 C 14,0 C
22.09.2012 17:00 13,7 C 57 % 1014,3 hPa 0,0 l/m 11,4 km/h (2 Bft) NW 5,2 C 13,7 C
22.09.2012 18:00 13,2 C 58 % 1014,9 hPa 0,0 l/m 9,3 km/h (2 Bft) W-NW 5,0 C 13,2 C
22.09.2012 19:00 11,7 C 61 % 1015,6 hPa 0,0 l/m 7,7 km/h (2 Bft) W-NW 4,4 C 11,7 C
22.09.2012 20:00 10,6 C 66 % 1016,4 hPa 0,0 l/m 8,3 km/h (2 Bft) W 4,5 C 10,6 C
22.09.2012 21:00 9,6 C 70 % 1016,9 hPa 0,0 l/m 6,9 km/h (2 Bft) W 4,4 C 8,9 C
22.09.2012 22:00 8,9 C 73 % 1017,4 hPa 0,0 l/m 5,9 km/h (2 Bft) W 4,4 C 8,3 C
22.09.2012 23:00 8,4 C 77 % 1018,2 hPa 0,0 l/m 7,3 km/h (2 Bft) W 4,6 C 7,4 C
23.09.2012 00:00 7,9 C 80 % 1018,6 hPa 0,0 l/m 6,7 km/h (2 Bft) W 4,6 C 6,9 C
23.09.2012 01:00 7,2 C 81 % 1019,0 hPa 0,0 l/m 10,0 km/h (2 Bft) W 4,2 C 5,5 C
23.09.2012 02:00 6,7 C 83 % 1019,0 hPa 0,0 l/m 5,1 km/h (1 Bft) W-SW 4,1 C 6,0 C
23.09.2012 03:00 6,2 C 84 % 1018,9 hPa 0,0 l/m 2,9 km/h (1 Bft) W-NW 3,8 C 5,9 C
23.09.2012 04:00 5,9 C 86 % 1019,1 hPa 0,0 l/m 6,5 km/h (2 Bft) W-SW 3,7 C 4,7 C
23.09.2012 05:00 5,6 C 86 % 1019,2 hPa 0,0 l/m 1,9 km/h (1 Bft) W-NW 3,4 C 5,5 C
23.09.2012 06:00 5,3 C 87 % 1019,1 hPa 0,0 l/m 2,3 km/h (1 Bft) W 3,3 C 5,1 C
23.09.2012 07:00 5,1 C 87 % 1019,5 hPa 0,0 l/m 1,5 km/h (1 Bft) W 3,1 C 5,1 C
23.09.2012 08:00 6,4 C 87 % 1019,6 hPa 0,0 l/m 4,8 km/h (1 Bft) W 4,4 C 6,0 C
23.09.2012 09:00 8,8 C 83 % 1019,8 hPa 0,0 l/m 7,4 km/h (2 Bft) W 6,0 C 8,0 C
23.09.2012 10:00 11,5 C 75 % 1019,8 hPa 0,0 l/m 6,9 km/h (2 Bft) W 7,2 C 11,5 C
23.09.2012 11:00 13,6 C 66 % 1019,5 hPa 0,0 l/m 9,9 km/h (2 Bft) W-SW 7,4 C 13,6 C
23.09.2012 12:00 14,9 C 57 % 1019,1 hPa 0,0 l/m 9,0 km/h (2 Bft) W-SW 6,3 C 14,9 C
23.09.2012 13:00 16,3 C 49 % 1018,5 hPa 0,0 l/m 6,9 km/h (2 Bft) W 5,6 C 16,3 C
23.09.2012 14:00 16,7 C 47 % 1018,0 hPa 0,0 l/m 4,5 km/h (1 Bft) W-SW 5,3 C 16,7 C
23.09.2012 15:00 17,0 C 46 % 1017,3 hPa 0,0 l/m 2,8 km/h (1 Bft) W 5,1 C 17,0 C
23.09.2012 16:00 16,9 C 45 % 1016,7 hPa 0,0 l/m 1,1 km/h (0 Bft) N 5,0 C 16,9 C
23.09.2012 17:00 16,1 C 47 % 1016,3 hPa 0,0 l/m 1,4 km/h (1 Bft) N-NO 4,7 C 16,1 C
23.09.2012 18:00 14,7 C 51 % 1015,6 hPa 0,0 l/m 1,7 km/h (1 Bft) O-NO 4,5 C 14,7 C
23.09.2012 19:00 12,9 C 57 % 1015,0 hPa 0,0 l/m 0,9 km/h (0 Bft) O-NO 4,7 C 12,9 C
23.09.2012 20:00 11,8 C 62 % 1014,9 hPa 0,0 l/m 0,9 km/h (0 Bft) O-NO 4,9 C 11,8 C
23.09.2012 21:00 10,9 C 66 % 1014,3 hPa 0,0 l/m 1,0 km/h (0 Bft) O-NO 4,8 C 10,9 C
23.09.2012 22:00 10,6 C 69 % 1013,7 hPa 0,0 l/m 3,8 km/h (1 Bft) O-NO 5,0 C 10,6 C
23.09.2012 23:00 10,8 C 68 % 1013,2 hPa 0,0 l/m 4,7 km/h (1 Bft) O-SO 5,1 C 10,8 C
Min-Datum _ 23.09.12 20.09.12 22.09.12 - 17.09.12 - 23.09.12 20.09.12
_ Min-Zeit 07:21 15:21 05:51 - 00:11 - 07:21 06:41
Minimum _ 4,8 C 42 % 1007,4 hPa - 0,0 km/h (0 Bft) - 2,8 C 3,1 C
Max-Datum _ 17.09.12 18.09.12 20.09.12 18.09.12 22.09.12 - 18.09.12 17.09.12
_ Max-Zeit 14:01 06:11 10:36 21:51 11:06 - 12:26 14:01
Maximum _ 22,8 C 89 % 1023,1 hPa 0,5 l/m 34,9 km/h
W (5 Bft)
- 13,8 C 22,8 C
Durchschnitt _ 12,9 C 69 % 1015,5 hPa #0,5 l/m 6,2 km/h (2 Bft) W-SW 7,0 C 12,8 C
(c) by David Heller